sensor_id;sensor_type;location;lat;lon;timestamp;temperature;humidity
9861;DHT22;4969;52.304;4.968;2023-08-06T00:01:53;20.62;70.88
9861;DHT22;4969;52.304;4.968;2023-08-06T00:04:19;20.61;70.80
9861;DHT22;4969;52.304;4.968;2023-08-06T00:06:47;20.23;72.27
9861;DHT22;4969;52.304;4.968;2023-08-06T00:09:14;19.93;71.68
9861;DHT22;4969;52.304;4.968;2023-08-06T00:11:40;19.63;72.08
9861;DHT22;4969;52.304;4.968;2023-08-06T00:14:09;18.99;73.25
9861;DHT22;4969;52.304;4.968;2023-08-06T00:16:35;19.26;74.83
9861;DHT22;4969;52.304;4.968;2023-08-06T00:19:02;19.23;74.22
9861;DHT22;4969;52.304;4.968;2023-08-06T00:21:29;19.28;74.23
9861;DHT22;4969;52.304;4.968;2023-08-06T00:23:57;19.31;74.24
9861;DHT22;4969;52.304;4.968;2023-08-06T00:26:23;18.97;74.67
9861;DHT22;4969;52.304;4.968;2023-08-06T00:28:50;18.85;75.24
9861;DHT22;4969;52.304;4.968;2023-08-06T00:31:17;18.55;75.40
9861;DHT22;4969;52.304;4.968;2023-08-06T00:33:43;18.43;76.15
9861;DHT22;4969;52.304;4.968;2023-08-06T00:36:10;18.79;76.70
9861;DHT22;4969;52.304;4.968;2023-08-06T00:38:36;18.90;76.01
9861;DHT22;4969;52.304;4.968;2023-08-06T00:41:04;18.85;76.30
9861;DHT22;4969;52.304;4.968;2023-08-06T00:43:31;18.68;75.19
9861;DHT22;4969;52.304;4.968;2023-08-06T00:45:58;18.37;76.65
9861;DHT22;4969;52.304;4.968;2023-08-06T00:48:24;18.71;76.72
9861;DHT22;4969;52.304;4.968;2023-08-06T00:50:51;18.85;76.61
9861;DHT22;4969;52.304;4.968;2023-08-06T00:53:18;18.99;75.97
9861;DHT22;4969;52.304;4.968;2023-08-06T00:55:45;18.61;75.84
9861;DHT22;4969;52.304;4.968;2023-08-06T00:58:14;18.48;76.80
9861;DHT22;4969;52.304;4.968;2023-08-06T01:00:42;18.61;77.58
9861;DHT22;4969;52.304;4.968;2023-08-06T01:03:08;18.28;77.05
9861;DHT22;4969;52.304;4.968;2023-08-06T01:05:35;18.51;77.85
9861;DHT22;4969;52.304;4.968;2023-08-06T01:08:11;18.83;77.43
9861;DHT22;4969;52.304;4.968;2023-08-06T01:10:48;18.95;77.04
9861;DHT22;4969;52.304;4.968;2023-08-06T01:13:24;19.17;75.66
9861;DHT22;4969;52.304;4.968;2023-08-06T01:15:55;18.69;76.02
9861;DHT22;4969;52.304;4.968;2023-08-06T01:18:23;18.51;76.75
9861;DHT22;4969;52.304;4.968;2023-08-06T01:20:51;18.58;76.86
9861;DHT22;4969;52.304;4.968;2023-08-06T01:23:18;18.88;77.38
9861;DHT22;4969;52.304;4.968;2023-08-06T01:25:49;18.69;76.40
9861;DHT22;4969;52.304;4.968;2023-08-06T01:28:23;18.45;77.36
9861;DHT22;4969;52.304;4.968;2023-08-06T01:30:54;18.21;77.33
9861;DHT22;4969;52.304;4.968;2023-08-06T01:33:22;18.07;77.76
9861;DHT22;4969;52.304;4.968;2023-08-06T01:35:51;18.04;78.30
9861;DHT22;4969;52.304;4.968;2023-08-06T01:38:20;18.03;78.98
9861;DHT22;4969;52.304;4.968;2023-08-06T01:40:47;18.18;78.28
9861;DHT22;4969;52.304;4.968;2023-08-06T01:43:13;17.87;78.61
9861;DHT22;4969;52.304;4.968;2023-08-06T01:45:40;17.76;79.21
9861;DHT22;4969;52.304;4.968;2023-08-06T01:48:06;17.82;79.42
9861;DHT22;4969;52.304;4.968;2023-08-06T01:50:33;17.89;79.43
9861;DHT22;4969;52.304;4.968;2023-08-06T01:53:01;17.99;79.55
9861;DHT22;4969;52.304;4.968;2023-08-06T01:55:29;18.16;79.12
9861;DHT22;4969;52.304;4.968;2023-08-06T01:57:55;18.03;79.00
9861;DHT22;4969;52.304;4.968;2023-08-06T02:00:22;17.82;79.25
9861;DHT22;4969;52.304;4.968;2023-08-06T02:02:48;17.71;79.70
9861;DHT22;4969;52.304;4.968;2023-08-06T02:05:15;17.68;80.08
9861;DHT22;4969;52.304;4.968;2023-08-06T02:07:42;17.54;81.11
9861;DHT22;4969;52.304;4.968;2023-08-06T02:10:10;17.47;80.92
9861;DHT22;4969;52.304;4.968;2023-08-06T02:12:36;17.44;81.19
9861;DHT22;4969;52.304;4.968;2023-08-06T02:15:04;17.64;81.05
9861;DHT22;4969;52.304;4.968;2023-08-06T02:17:30;18.03;80.64
9861;DHT22;4969;52.304;4.968;2023-08-06T02:19:57;18.10;80.34
9861;DHT22;4969;52.304;4.968;2023-08-06T02:22:24;18.27;79.62
9861;DHT22;4969;52.304;4.968;2023-08-06T02:24:51;18.16;78.98
9861;DHT22;4969;52.304;4.968;2023-08-06T02:27:19;18.09;79.99
9861;DHT22;4969;52.304;4.968;2023-08-06T02:29:45;18.12;79.52
9861;DHT22;4969;52.304;4.968;2023-08-06T02:32:12;18.20;79.51
9861;DHT22;4969;52.304;4.968;2023-08-06T02:34:39;18.68;79.14
9861;DHT22;4969;52.304;4.968;2023-08-06T02:37:05;18.48;78.40
9861;DHT22;4969;52.304;4.968;2023-08-06T02:39:32;18.27;78.64
9861;DHT22;4969;52.304;4.968;2023-08-06T02:41:59;18.06;78.85
9861;DHT22;4969;52.304;4.968;2023-08-06T02:44:28;18.14;79.46
9861;DHT22;4969;52.304;4.968;2023-08-06T02:46:54;18.34;79.51
9861;DHT22;4969;52.304;4.968;2023-08-06T02:49:21;18.45;78.68
9861;DHT22;4969;52.304;4.968;2023-08-06T02:51:47;18.27;78.56
9861;DHT22;4969;52.304;4.968;2023-08-06T02:54:14;18.00;78.57
9861;DHT22;4969;52.304;4.968;2023-08-06T02:56:43;18.09;79.74
9861;DHT22;4969;52.304;4.968;2023-08-06T02:59:09;18.24;79.30
9861;DHT22;4969;52.304;4.968;2023-08-06T03:01:37;18.17;79.00
9861;DHT22;4969;52.304;4.968;2023-08-06T03:04:04;18.33;79.43
9861;DHT22;4969;52.304;4.968;2023-08-06T03:06:31;18.54;79.45
9861;DHT22;4969;52.304;4.968;2023-08-06T03:08:57;18.38;78.88
9861;DHT22;4969;52.304;4.968;2023-08-06T03:11:24;18.40;78.84
9861;DHT22;4969;52.304;4.968;2023-08-06T03:13:50;17.96;78.22
9861;DHT22;4969;52.304;4.968;2023-08-06T03:16:17;17.71;79.60
9861;DHT22;4969;52.304;4.968;2023-08-06T03:18:45;17.69;79.91
9861;DHT22;4969;52.304;4.968;2023-08-06T03:21:12;17.75;80.47
9861;DHT22;4969;52.304;4.968;2023-08-06T03:23:38;17.71;80.44
9861;DHT22;4969;52.304;4.968;2023-08-06T03:26:04;17.49;80.34
9861;DHT22;4969;52.304;4.968;2023-08-06T03:28:31;17.37;81.06
9861;DHT22;4969;52.304;4.968;2023-08-06T03:31:01;17.55;81.43
9861;DHT22;4969;52.304;4.968;2023-08-06T03:33:28;17.72;81.16
9861;DHT22;4969;52.304;4.968;2023-08-06T03:35:56;17.67;81.40
9861;DHT22;4969;52.304;4.968;2023-08-06T03:38:22;17.83;80.72
9861;DHT22;4969;52.304;4.968;2023-08-06T03:40:49;17.96;80.50
9861;DHT22;4969;52.304;4.968;2023-08-06T03:43:16;17.78;80.30
9861;DHT22;4969;52.304;4.968;2023-08-06T03:45:42;17.71;80.61
9861;DHT22;4969;52.304;4.968;2023-08-06T03:48:09;17.52;80.70
9861;DHT22;4969;52.304;4.968;2023-08-06T03:50:36;17.49;81.20
9861;DHT22;4969;52.304;4.968;2023-08-06T03:53:04;17.49;81.37
9861;DHT22;4969;52.304;4.968;2023-08-06T03:55:31;17.62;81.51
9861;DHT22;4969;52.304;4.968;2023-08-06T03:57:57;17.67;81.24
9861;DHT22;4969;52.304;4.968;2023-08-06T04:00:24;17.49;81.13
9861;DHT22;4969;52.304;4.968;2023-08-06T04:02:51;17.38;81.54
9861;DHT22;4969;52.304;4.968;2023-08-06T04:05:18;17.35;81.69
9861;DHT22;4969;52.304;4.968;2023-08-06T04:07:44;17.26;81.83
9861;DHT22;4969;52.304;4.968;2023-08-06T04:10:12;17.24;82.23
9861;DHT22;4969;52.304;4.968;2023-08-06T04:12:39;17.32;82.19
9861;DHT22;4969;52.304;4.968;2023-08-06T04:15:07;17.31;82.03
9861;DHT22;4969;52.304;4.968;2023-08-06T04:17:33;17.35;82.04
9861;DHT22;4969;52.304;4.968;2023-08-06T04:20:00;17.23;82.30
9861;DHT22;4969;52.304;4.968;2023-08-06T04:22:27;17.24;82.48
9861;DHT22;4969;52.304;4.968;2023-08-06T04:24:54;17.23;82.58
9861;DHT22;4969;52.304;4.968;2023-08-06T04:27:22;17.23;82.67
9861;DHT22;4969;52.304;4.968;2023-08-06T04:29:48;17.23;82.87
9861;DHT22;4969;52.304;4.968;2023-08-06T04:32:15;17.28;82.75
9861;DHT22;4969;52.304;4.968;2023-08-06T04:34:42;17.34;82.52
9861;DHT22;4969;52.304;4.968;2023-08-06T04:37:09;17.26;82.55
9861;DHT22;4969;52.304;4.968;2023-08-06T04:39:36;17.24;82.58
9861;DHT22;4969;52.304;4.968;2023-08-06T04:42:03;17.04;82.91
9861;DHT22;4969;52.304;4.968;2023-08-06T04:44:31;17.02;83.29
9861;DHT22;4969;52.304;4.968;2023-08-06T04:46:58;17.04;83.40
9861;DHT22;4969;52.304;4.968;2023-08-06T04:49:24;17.04;83.52
9861;DHT22;4969;52.304;4.968;2023-08-06T04:51:51;17.06;83.62
9861;DHT22;4969;52.304;4.968;2023-08-06T04:54:18;17.23;83.44
9861;DHT22;4969;52.304;4.968;2023-08-06T04:56:44;17.13;83.42
9861;DHT22;4969;52.304;4.968;2023-08-06T04:59:11;17.06;83.66
9861;DHT22;4969;52.304;4.968;2023-08-06T05:01:39;16.99;83.95
9861;DHT22;4969;52.304;4.968;2023-08-06T05:04:05;17.09;83.50
9861;DHT22;4969;52.304;4.968;2023-08-06T05:06:32;16.57;84.38
9861;DHT22;4969;52.304;4.968;2023-08-06T05:08:58;16.79;84.88
9861;DHT22;4969;52.304;4.968;2023-08-06T05:11:25;17.61;84.55
9861;DHT22;4969;52.304;4.968;2023-08-06T05:13:52;17.65;81.85
9861;DHT22;4969;52.304;4.968;2023-08-06T05:16:18;16.86;82.36
9861;DHT22;4969;52.304;4.968;2023-08-06T05:18:46;16.64;83.78
9861;DHT22;4969;52.304;4.968;2023-08-06T05:21:13;16.91;84.28
9861;DHT22;4969;52.304;4.968;2023-08-06T05:23:41;17.02;82.92
9861;DHT22;4969;52.304;4.968;2023-08-06T05:26:08;16.83;82.13
9861;DHT22;4969;52.304;4.968;2023-08-06T05:28:35;16.73;83.09
9861;DHT22;4969;52.304;4.968;2023-08-06T05:31:03;16.26;85.47
9861;DHT22;4969;52.304;4.968;2023-08-06T05:33:30;16.33;84.61
9861;DHT22;4969;52.304;4.968;2023-08-06T05:35:58;16.27;84.36
9861;DHT22;4969;52.304;4.968;2023-08-06T05:38:25;16.58;85.12
9861;DHT22;4969;52.304;4.968;2023-08-06T05:40:51;16.57;84.52
9861;DHT22;4969;52.304;4.968;2023-08-06T05:43:18;16.58;84.12
9861;DHT22;4969;52.304;4.968;2023-08-06T05:45:44;16.40;83.95
9861;DHT22;4969;52.304;4.968;2023-08-06T05:48:11;16.45;84.67
9861;DHT22;4969;52.304;4.968;2023-08-06T05:50:38;16.75;84.28
9861;DHT22;4969;52.304;4.968;2023-08-06T05:53:06;16.68;84.88
9861;DHT22;4969;52.304;4.968;2023-08-06T05:55:33;16.54;83.23
9861;DHT22;4969;52.304;4.968;2023-08-06T05:57:59;16.58;83.73
9861;DHT22;4969;52.304;4.968;2023-08-06T06:00:26;16.40;84.39
9861;DHT22;4969;52.304;4.968;2023-08-06T06:02:52;16.20;84.21
9861;DHT22;4969;52.304;4.968;2023-08-06T06:05:19;16.34;84.88
9861;DHT22;4969;52.304;4.968;2023-08-06T06:07:47;16.14;84.55
9861;DHT22;4969;52.304;4.968;2023-08-06T06:10:15;16.30;85.39
9861;DHT22;4969;52.304;4.968;2023-08-06T06:12:42;16.30;84.49
9861;DHT22;4969;52.304;4.968;2023-08-06T06:15:09;16.36;86.21
9861;DHT22;4969;52.304;4.968;2023-08-06T06:17:36;16.28;84.85
9861;DHT22;4969;52.304;4.968;2023-08-06T06:20:03;16.66;85.11
9861;DHT22;4969;52.304;4.968;2023-08-06T06:22:30;16.85;83.62
9861;DHT22;4969;52.304;4.968;2023-08-06T06:24:56;16.61;84.23
9861;DHT22;4969;52.304;4.968;2023-08-06T06:27:24;16.55;83.26
9861;DHT22;4969;52.304;4.968;2023-08-06T06:29:51;16.71;83.12
9861;DHT22;4969;52.304;4.968;2023-08-06T06:32:19;16.45;83.90
9861;DHT22;4969;52.304;4.968;2023-08-06T06:34:46;16.36;84.02
9861;DHT22;4969;52.304;4.968;2023-08-06T06:37:13;16.47;84.76
9861;DHT22;4969;52.304;4.968;2023-08-06T06:39:39;16.38;84.39
9861;DHT22;4969;52.304;4.968;2023-08-06T06:42:06;16.37;84.53
9861;DHT22;4969;52.304;4.968;2023-08-06T06:44:34;16.49;84.16
9861;DHT22;4969;52.304;4.968;2023-08-06T06:47:01;16.48;83.96
9861;DHT22;4969;52.304;4.968;2023-08-06T06:49:27;16.51;84.32
9861;DHT22;4969;52.304;4.968;2023-08-06T06:51:54;16.36;85.44
9861;DHT22;4969;52.304;4.968;2023-08-06T06:54:20;16.47;84.75
9861;DHT22;4969;52.304;4.968;2023-08-06T06:56:47;16.68;86.37
9861;DHT22;4969;52.304;4.968;2023-08-06T06:59:14;16.36;83.73
9861;DHT22;4969;52.304;4.968;2023-08-06T07:01:42;16.24;83.78
9861;DHT22;4969;52.304;4.968;2023-08-06T07:04:08;15.85;83.82
9861;DHT22;4969;52.304;4.968;2023-08-06T07:06:35;16.21;84.89
9861;DHT22;4969;52.304;4.968;2023-08-06T07:09:01;15.85;84.19
9861;DHT22;4969;52.304;4.968;2023-08-06T07:11:28;15.85;84.60
9861;DHT22;4969;52.304;4.968;2023-08-06T07:13:56;15.79;84.22
9861;DHT22;4969;52.304;4.968;2023-08-06T07:16:23;16.14;83.26
9861;DHT22;4969;52.304;4.968;2023-08-06T07:18:51;16.28;85.61
9861;DHT22;4969;52.304;4.968;2023-08-06T07:21:18;16.27;82.81
9861;DHT22;4969;52.304;4.968;2023-08-06T07:23:45;16.09;84.57
9861;DHT22;4969;52.304;4.968;2023-08-06T07:26:11;16.20;84.41
9861;DHT22;4969;52.304;4.968;2023-08-06T07:28:38;16.41;83.64
9861;DHT22;4969;52.304;4.968;2023-08-06T07:31:05;16.57;83.27
9861;DHT22;4969;52.304;4.968;2023-08-06T07:33:31;16.09;83.60
9861;DHT22;4969;52.304;4.968;2023-08-06T07:35:59;16.37;84.69
9861;DHT22;4969;52.304;4.968;2023-08-06T07:38:26;16.37;84.49
9861;DHT22;4969;52.304;4.968;2023-08-06T07:40:53;16.16;84.71
9861;DHT22;4969;52.304;4.968;2023-08-06T07:43:20;16.36;84.99
9861;DHT22;4969;52.304;4.968;2023-08-06T07:45:46;16.57;83.61
9861;DHT22;4969;52.304;4.968;2023-08-06T07:48:13;16.14;84.23
9861;DHT22;4969;52.304;4.968;2023-08-06T07:50:39;16.28;84.47
9861;DHT22;4969;52.304;4.968;2023-08-06T07:53:07;16.52;84.02
9861;DHT22;4969;52.304;4.968;2023-08-06T07:55:34;16.47;84.55
9861;DHT22;4969;52.304;4.968;2023-08-06T07:58:00;16.65;84.85
9861;DHT22;4969;52.304;4.968;2023-08-06T08:00:27;16.59;83.65
9861;DHT22;4969;52.304;4.968;2023-08-06T08:02:54;16.55;84.02
9861;DHT22;4969;52.304;4.968;2023-08-06T08:05:20;16.62;84.71
9861;DHT22;4969;52.304;4.968;2023-08-06T08:07:47;16.61;83.49
9861;DHT22;4969;52.304;4.968;2023-08-06T08:10:15;16.52;84.56
9861;DHT22;4969;52.304;4.968;2023-08-06T08:12:42;16.65;84.14
9861;DHT22;4969;52.304;4.968;2023-08-06T08:15:09;16.52;83.69
9861;DHT22;4969;52.304;4.968;2023-08-06T08:17:35;16.62;83.59
9861;DHT22;4969;52.304;4.968;2023-08-06T08:20:03;16.45;84.26
9861;DHT22;4969;52.304;4.968;2023-08-06T08:22:30;16.71;84.39
9861;DHT22;4969;52.304;4.968;2023-08-06T08:24:57;16.89;83.73
9861;DHT22;4969;52.304;4.968;2023-08-06T08:27:24;16.73;83.26
9861;DHT22;4969;52.304;4.968;2023-08-06T08:29:51;16.96;83.16
9861;DHT22;4969;52.304;4.968;2023-08-06T08:32:18;16.89;84.53
9861;DHT22;4969;52.304;4.968;2023-08-06T08:34:44;16.48;83.85
9861;DHT22;4969;52.304;4.968;2023-08-06T08:37:11;16.64;84.33
9861;DHT22;4969;52.304;4.968;2023-08-06T08:39:37;16.72;83.57
9861;DHT22;4969;52.304;4.968;2023-08-06T08:42:05;16.86;83.69
9861;DHT22;4969;52.304;4.968;2023-08-06T08:44:34;16.91;83.39
9861;DHT22;4969;52.304;4.968;2023-08-06T08:47:04;16.92;82.89
9861;DHT22;4969;52.304;4.968;2023-08-06T08:49:31;16.86;83.75
9861;DHT22;4969;52.304;4.968;2023-08-06T08:51:59;16.57;84.18
9861;DHT22;4969;52.304;4.968;2023-08-06T08:54:28;16.47;83.82
9861;DHT22;4969;52.304;4.968;2023-08-06T08:56:57;16.41;85.68
9861;DHT22;4969;52.304;4.968;2023-08-06T08:59:23;16.61;84.80
9861;DHT22;4969;52.304;4.968;2023-08-06T09:01:53;16.42;83.82
9861;DHT22;4969;52.304;4.968;2023-08-06T09:04:21;16.19;85.56
9861;DHT22;4969;52.304;4.968;2023-08-06T09:06:51;16.47;85.55
9861;DHT22;4969;52.304;4.968;2023-08-06T09:09:23;16.91;85.97
9861;DHT22;4969;52.304;4.968;2023-08-06T09:11:51;16.59;83.43
9861;DHT22;4969;52.304;4.968;2023-08-06T09:14:18;16.79;84.05
9861;DHT22;4969;52.304;4.968;2023-08-06T09:16:45;16.72;84.03
9861;DHT22;4969;52.304;4.968;2023-08-06T09:19:14;16.80;84.28
9861;DHT22;4969;52.304;4.968;2023-08-06T09:21:42;16.62;83.23
9861;DHT22;4969;52.304;4.968;2023-08-06T09:24:10;16.14;86.01
9861;DHT22;4969;52.304;4.968;2023-08-06T09:26:36;16.12;85.78
9861;DHT22;4969;52.304;4.968;2023-08-06T09:29:05;16.05;86.71
9861;DHT22;4969;52.304;4.968;2023-08-06T09:31:40;16.45;86.26
9861;DHT22;4969;52.304;4.968;2023-08-06T09:34:10;16.38;84.47
9861;DHT22;4969;52.304;4.968;2023-08-06T09:36:41;16.42;84.24
9861;DHT22;4969;52.304;4.968;2023-08-06T09:39:13;16.57;85.14
9861;DHT22;4969;52.304;4.968;2023-08-06T09:41:40;16.55;83.79
9861;DHT22;4969;52.304;4.968;2023-08-06T09:44:15;16.34;84.95
9861;DHT22;4969;52.304;4.968;2023-08-06T09:46:42;16.72;84.37
9861;DHT22;4969;52.304;4.968;2023-08-06T09:49:09;16.54;84.01
9861;DHT22;4969;52.304;4.968;2023-08-06T09:51:37;16.91;83.44
9861;DHT22;4969;52.304;4.968;2023-08-06T09:54:06;16.76;82.77
9861;DHT22;4969;52.304;4.968;2023-08-06T09:56:33;16.83;83.73
9861;DHT22;4969;52.304;4.968;2023-08-06T09:59:04;16.89;82.50
9861;DHT22;4969;52.304;4.968;2023-08-06T10:01:31;17.34;83.99
9861;DHT22;4969;52.304;4.968;2023-08-06T10:03:59;16.95;82.93
9861;DHT22;4969;52.304;4.968;2023-08-06T10:06:26;16.92;83.05
9861;DHT22;4969;52.304;4.968;2023-08-06T10:08:53;16.95;82.88
9861;DHT22;4969;52.304;4.968;2023-08-06T10:11:22;16.88;82.80
9861;DHT22;4969;52.304;4.968;2023-08-06T10:13:51;17.09;84.49
9861;DHT22;4969;52.304;4.968;2023-08-06T10:16:19;17.02;82.86
9861;DHT22;4969;52.304;4.968;2023-08-06T10:18:47;16.89;82.47
9861;DHT22;4969;52.304;4.968;2023-08-06T10:21:15;16.71;83.90
9861;DHT22;4969;52.304;4.968;2023-08-06T10:23:42;16.79;84.08
9861;DHT22;4969;52.304;4.968;2023-08-06T10:26:09;17.07;84.58
9861;DHT22;4969;52.304;4.968;2023-08-06T10:28:37;16.91;83.66
9861;DHT22;4969;52.304;4.968;2023-08-06T10:31:04;17.41;82.97
9861;DHT22;4969;52.304;4.968;2023-08-06T10:33:41;17.12;81.77
9861;DHT22;4969;52.304;4.968;2023-08-06T10:36:09;16.92;83.28
9861;DHT22;4969;52.304;4.968;2023-08-06T10:38:43;16.93;83.65
9861;DHT22;4969;52.304;4.968;2023-08-06T10:41:15;17.13;83.95
9861;DHT22;4969;52.304;4.968;2023-08-06T10:43:43;17.27;83.40
9861;DHT22;4969;52.304;4.968;2023-08-06T10:46:22;17.32;81.50
9861;DHT22;4969;52.304;4.968;2023-08-06T10:48:49;16.99;83.07
9861;DHT22;4969;52.304;4.968;2023-08-06T10:51:16;17.13;82.85
9861;DHT22;4969;52.304;4.968;2023-08-06T10:53:44;16.99;82.49
9861;DHT22;4969;52.304;4.968;2023-08-06T10:56:14;16.85;84.04
9861;DHT22;4969;52.304;4.968;2023-08-06T10:58:41;17.13;84.25
9861;DHT22;4969;52.304;4.968;2023-08-06T11:01:09;17.32;82.72
9861;DHT22;4969;52.304;4.968;2023-08-06T11:03:36;17.35;84.90
9861;DHT22;4969;52.304;4.968;2023-08-06T11:06:03;17.23;81.80
9861;DHT22;4969;52.304;4.968;2023-08-06T11:08:33;17.34;83.76
9861;DHT22;4969;52.304;4.968;2023-08-06T11:11:07;17.41;82.31
9861;DHT22;4969;52.304;4.968;2023-08-06T11:13:34;17.40;81.15
9861;DHT22;4969;52.304;4.968;2023-08-06T11:16:01;17.68;80.52
9861;DHT22;4969;52.304;4.968;2023-08-06T11:18:29;17.07;82.20
9861;DHT22;4969;52.304;4.968;2023-08-06T11:20:58;16.95;82.33
9861;DHT22;4969;52.304;4.968;2023-08-06T11:23:26;17.13;82.64
9861;DHT22;4969;52.304;4.968;2023-08-06T11:25:53;17.24;82.73
9861;DHT22;4969;52.304;4.968;2023-08-06T11:28:20;17.26;84.23
9861;DHT22;4969;52.304;4.968;2023-08-06T11:30:47;17.17;83.15
9861;DHT22;4969;52.304;4.968;2023-08-06T11:33:14;17.51;84.05
9861;DHT22;4969;52.304;4.968;2023-08-06T11:35:42;17.54;81.79
9861;DHT22;4969;52.304;4.968;2023-08-06T11:38:08;17.51;82.47
9861;DHT22;4969;52.304;4.968;2023-08-06T11:40:35;17.21;82.14
9861;DHT22;4969;52.304;4.968;2023-08-06T11:43:02;17.10;83.10
9861;DHT22;4969;52.304;4.968;2023-08-06T11:45:29;17.59;83.54
9861;DHT22;4969;52.304;4.968;2023-08-06T11:47:55;17.45;82.17
9861;DHT22;4969;52.304;4.968;2023-08-06T11:50:23;17.40;83.23
9861;DHT22;4969;52.304;4.968;2023-08-06T11:52:55;17.57;83.43
9861;DHT22;4969;52.304;4.968;2023-08-06T11:55:23;17.97;83.32
9861;DHT22;4969;52.304;4.968;2023-08-06T11:57:50;17.85;81.86
9861;DHT22;4969;52.304;4.968;2023-08-06T12:00:17;17.69;80.63
9861;DHT22;4969;52.304;4.968;2023-08-06T12:02:45;17.74;81.23
9861;DHT22;4969;52.304;4.968;2023-08-06T12:05:15;17.78;82.23
9861;DHT22;4969;52.304;4.968;2023-08-06T12:07:44;17.95;81.72
9861;DHT22;4969;52.304;4.968;2023-08-06T12:10:12;17.79;80.30
9861;DHT22;4969;52.304;4.968;2023-08-06T12:12:39;17.64;81.68
9861;DHT22;4969;52.304;4.968;2023-08-06T12:15:07;17.69;81.79
9861;DHT22;4969;52.304;4.968;2023-08-06T12:17:34;17.79;81.30
9861;DHT22;4969;52.304;4.968;2023-08-06T12:20:01;17.76;82.27
9861;DHT22;4969;52.304;4.968;2023-08-06T12:22:29;18.03;80.52
9861;DHT22;4969;52.304;4.968;2023-08-06T12:24:57;18.03;79.91
9861;DHT22;4969;52.304;4.968;2023-08-06T12:27:25;17.78;81.90
9861;DHT22;4969;52.304;4.968;2023-08-06T12:29:52;17.99;79.95
9861;DHT22;4969;52.304;4.968;2023-08-06T12:32:18;18.03;79.84
9861;DHT22;4969;52.304;4.968;2023-08-06T12:34:45;17.96;80.90
9861;DHT22;4969;52.304;4.968;2023-08-06T12:37:13;18.30;81.22
9861;DHT22;4969;52.304;4.968;2023-08-06T12:39:39;18.09;81.33
9861;DHT22;4969;52.304;4.968;2023-08-06T12:42:06;18.07;81.99
9861;DHT22;4969;52.304;4.968;2023-08-06T12:44:34;18.38;80.04
9861;DHT22;4969;52.304;4.968;2023-08-06T12:47:00;18.21;79.13
9861;DHT22;4969;52.304;4.968;2023-08-06T12:49:27;18.38;79.34
9861;DHT22;4969;52.304;4.968;2023-08-06T12:51:55;18.33;79.13
9861;DHT22;4969;52.304;4.968;2023-08-06T12:54:22;18.16;79.92
9861;DHT22;4969;52.304;4.968;2023-08-06T12:56:49;18.31;80.07
9861;DHT22;4969;52.304;4.968;2023-08-06T12:59:16;18.17;80.04
9861;DHT22;4969;52.304;4.968;2023-08-06T13:01:45;18.23;78.43
9861;DHT22;4969;52.304;4.968;2023-08-06T13:04:13;18.09;78.65
9861;DHT22;4969;52.304;4.968;2023-08-06T13:06:40;17.95;78.88
9861;DHT22;4969;52.304;4.968;2023-08-06T13:09:07;18.40;78.64
9861;DHT22;4969;52.304;4.968;2023-08-06T13:11:34;18.25;77.38
9861;DHT22;4969;52.304;4.968;2023-08-06T13:14:04;17.97;77.05
9861;DHT22;4969;52.304;4.968;2023-08-06T13:16:31;17.93;78.28
9861;DHT22;4969;52.304;4.968;2023-08-06T13:18:59;18.10;78.54
9861;DHT22;4969;52.304;4.968;2023-08-06T13:21:33;18.37;76.81
9861;DHT22;4969;52.304;4.968;2023-08-06T13:24:01;18.31;77.40
9861;DHT22;4969;52.304;4.968;2023-08-06T13:26:28;18.41;76.90
9861;DHT22;4969;52.304;4.968;2023-08-06T13:28:56;18.25;76.38
9861;DHT22;4969;52.304;4.968;2023-08-06T13:31:23;17.93;76.22
9861;DHT22;4969;52.304;4.968;2023-08-06T13:33:50;17.90;77.94
9861;DHT22;4969;52.304;4.968;2023-08-06T13:36:18;17.86;75.67
9861;DHT22;4969;52.304;4.968;2023-08-06T13:38:45;18.13;74.74
9861;DHT22;4969;52.304;4.968;2023-08-06T13:41:11;18.02;76.62
9861;DHT22;4969;52.304;4.968;2023-08-06T13:43:38;17.99;77.20
9861;DHT22;4969;52.304;4.968;2023-08-06T13:46:05;18.10;77.14
9861;DHT22;4969;52.304;4.968;2023-08-06T13:48:31;18.07;77.56
9861;DHT22;4969;52.304;4.968;2023-08-06T13:50:58;17.99;76.35
9861;DHT22;4969;52.304;4.968;2023-08-06T13:53:26;18.27;76.37
9861;DHT22;4969;52.304;4.968;2023-08-06T13:55:55;18.18;73.97
9861;DHT22;4969;52.304;4.968;2023-08-06T13:58:22;18.02;75.61
9861;DHT22;4969;52.304;4.968;2023-08-06T14:00:48;18.14;76.48
9861;DHT22;4969;52.304;4.968;2023-08-06T14:03:18;18.20;76.00
9861;DHT22;4969;52.304;4.968;2023-08-06T14:05:44;18.27;74.85
9861;DHT22;4969;52.304;4.968;2023-08-06T14:08:11;18.48;77.04
9861;DHT22;4969;52.304;4.968;2023-08-06T14:10:40;18.45;75.21
9861;DHT22;4969;52.304;4.968;2023-08-06T14:13:06;18.14;74.31
9861;DHT22;4969;52.304;4.968;2023-08-06T14:15:33;18.23;75.66
9861;DHT22;4969;52.304;4.968;2023-08-06T14:18:00;18.20;75.30
9861;DHT22;4969;52.304;4.968;2023-08-06T14:20:26;17.95;75.34
9861;DHT22;4969;52.304;4.968;2023-08-06T14:22:53;18.30;75.90
9861;DHT22;4969;52.304;4.968;2023-08-06T14:25:20;17.93;76.59
9861;DHT22;4969;52.304;4.968;2023-08-06T14:27:50;17.72;77.77
9861;DHT22;4969;52.304;4.968;2023-08-06T14:30:17;17.69;79.21
9861;DHT22;4969;52.304;4.968;2023-08-06T14:32:44;17.55;78.54
9861;DHT22;4969;52.304;4.968;2023-08-06T14:35:10;17.42;77.81
9861;DHT22;4969;52.304;4.968;2023-08-06T14:37:37;17.52;77.27
9861;DHT22;4969;52.304;4.968;2023-08-06T14:40:05;17.30;78.16
9861;DHT22;4969;52.304;4.968;2023-08-06T14:42:32;17.52;78.28
9861;DHT22;4969;52.304;4.968;2023-08-06T14:45:00;17.27;77.20
9861;DHT22;4969;52.304;4.968;2023-08-06T14:47:26;17.28;76.23
9861;DHT22;4969;52.304;4.968;2023-08-06T14:49:53;17.62;76.36
9861;DHT22;4969;52.304;4.968;2023-08-06T14:52:20;17.38;74.56
9861;DHT22;4969;52.304;4.968;2023-08-06T14:54:46;17.28;75.81
9861;DHT22;4969;52.304;4.968;2023-08-06T14:57:13;17.35;75.27
9861;DHT22;4969;52.304;4.968;2023-08-06T14:59:40;17.32;74.00
9861;DHT22;4969;52.304;4.968;2023-08-06T15:02:08;17.03;74.57
9861;DHT22;4969;52.304;4.968;2023-08-06T15:04:34;17.12;75.10
9861;DHT22;4969;52.304;4.968;2023-08-06T15:07:01;17.02;74.76
9861;DHT22;4969;52.304;4.968;2023-08-06T15:09:28;17.09;76.46
9861;DHT22;4969;52.304;4.968;2023-08-06T15:11:55;17.12;76.19
9861;DHT22;4969;52.304;4.968;2023-08-06T15:14:21;17.21;74.97
9861;DHT22;4969;52.304;4.968;2023-08-06T15:16:48;17.12;75.39
9861;DHT22;4969;52.304;4.968;2023-08-06T15:19:18;17.45;75.25
9861;DHT22;4969;52.304;4.968;2023-08-06T15:21:44;17.55;74.86
9861;DHT22;4969;52.304;4.968;2023-08-06T15:24:11;17.82;72.99
9861;DHT22;4969;52.304;4.968;2023-08-06T15:26:38;17.48;73.01
9861;DHT22;4969;52.304;4.968;2023-08-06T15:29:05;17.59;72.34
9861;DHT22;4969;52.304;4.968;2023-08-06T15:31:36;17.44;73.88
9861;DHT22;4969;52.304;4.968;2023-08-06T15:34:03;17.31;74.14
9861;DHT22;4969;52.304;4.968;2023-08-06T15:36:32;17.27;76.05
9861;DHT22;4969;52.304;4.968;2023-08-06T15:38:58;17.07;75.35
9861;DHT22;4969;52.304;4.968;2023-08-06T15:41:25;17.00;74.34
9861;DHT22;4969;52.304;4.968;2023-08-06T15:43:51;17.09;75.52
9861;DHT22;4969;52.304;4.968;2023-08-06T15:46:18;17.14;73.93
9861;DHT22;4969;52.304;4.968;2023-08-06T15:48:45;17.02;74.51
9861;DHT22;4969;52.304;4.968;2023-08-06T15:51:11;17.28;74.94
9861;DHT22;4969;52.304;4.968;2023-08-06T15:53:39;17.21;73.48
9861;DHT22;4969;52.304;4.968;2023-08-06T15:56:06;17.14;73.33
9861;DHT22;4969;52.304;4.968;2023-08-06T15:58:32;17.45;73.16
9861;DHT22;4969;52.304;4.968;2023-08-06T16:00:59;17.58;72.61
9861;DHT22;4969;52.304;4.968;2023-08-06T16:03:25;17.59;72.24